Mount Magnet, Australia
Current Conditions -  °F | °C
As of 3:00 AM on Saturday 01 Nov 2014 (Local Time) from YMEK Reporting Station
Clear Clear  
Wind Chill: 64°   Ceiling: Unl
Heat Index: 64°   Visibility: 6mi
Dew Point: 64°   Wind: 9mph
Humidity: 100%   Direction: 150°SSE
Pressure: 29.94"   Gusts: NA
Location:  28.06°S, 117.85°E
Report Text: YMEK 311900Z AUTO 15008KT 9999 // NCD 18/18 Q1014
Loading
Personal Weather Stations






























Interactive Weather Map
Tropical Storm Tracking
New forecast layout! Learn more

10-Day Weather Forecast

Advertisements
Track Severe Weather on mobile